Time;durP1;ratioP1;P1;durP2;ratioP2;P2;SDS_P1;SDS_P2;PMS_P1;PMS_P2;Temp;Humidity;BMP_temperature;BMP_pressure;BME280_temperature;BME280_humidity;BME280_pressure;Samples;Min_cycle;Max_cycle;Signal;HPM_P1;HPM_P2
2022/06/04 00:00:37;;;;;;;15.88;6.88;;;11.20;99.90;;;;;;4976243;28;20043;-69
2022/06/04 00:03:04;;;;;;;15.07;6.53;;;11.20;99.90;;;;;;4980817;28;20089;-69
2022/06/04 00:05:32;;;;;;;12.75;6.78;;;11.10;99.90;;;;;;4969962;28;20050;-68
2022/06/04 00:08:00;;;;;;;16.92;6.55;;;11.20;99.90;;;;;;4968344;28;20564;-68
2022/06/04 00:16:06;;;;;;;20.98;7.85;;;11.10;99.90;;;;;;4970350;28;20061;-69
2022/06/04 00:18:32;;;;;;;14.20;7.88;;;11.10;99.90;;;;;;4969134;28;20047;-69
2022/06/04 00:20:58;;;;;;;20.85;9.15;;;11.10;99.90;;;;;;4969527;28;20047;-68
2022/06/04 00:23:26;;;;;;;17.77;8.38;;;11.10;99.90;;;;;;4967267;28;20046;-68
2022/06/04 00:25:54;;;;;;;17.00;8.50;;;11.10;99.90;;;;;;4969830;28;20429;-68
2022/06/04 00:28:21;;;;;;;19.65;8.13;;;11.10;99.90;;;;;;4975599;28;20039;-70
2022/06/04 00:30:48;;;;;;;16.92;9.07;;;11.00;99.90;;;;;;4975506;28;20477;-68
2022/06/04 00:33:16;;;;;;;13.18;9.15;;;11.10;99.90;;;;;;4969063;28;20568;-67
2022/06/04 00:35:42;;;;;;;17.33;8.93;;;11.10;99.90;;;;;;4969211;28;20046;-68
2022/06/04 00:38:08;;;;;;;19.33;8.80;;;11.00;99.90;;;;;;4966754;28;20058;-68
2022/06/04 00:40:50;;;;;;;18.08;8.95;;;11.00;99.90;;;;;;4971617;28;20140;-68
2022/06/04 00:43:17;;;;;;;20.88;9.23;;;10.90;99.90;;;;;;4967377;28;20053;-68
2022/06/04 00:46:18;;;;;;;25.13;9.00;;;10.90;99.90;;;;;;4970793;28;20103;-68
2022/06/04 00:48:44;;;;;;;18.75;8.65;;;11.00;99.90;;;;;;4985534;28;20210;-67
2022/06/04 00:51:09;;;;;;;18.10;8.98;;;10.90;99.90;;;;;;4976421;28;20050;-67
2022/06/04 00:53:36;;;;;;;19.73;9.35;;;10.90;99.90;;;;;;4965412;28;20049;-68
2022/06/04 00:56:45;;;;;;;18.33;9.32;;;11.00;99.90;;;;;;4974910;28;20052;-68
2022/06/04 00:59:26;;;;;;;25.38;9.70;;;11.00;99.90;;;;;;4967457;28;20078;-68
2022/06/04 01:01:57;;;;;;;17.58;9.55;;;10.90;99.90;;;;;;4967541;28;20093;-69
2022/06/04 01:04:49;;;;;;;19.40;9.23;;;10.80;99.90;;;;;;4974146;28;20145;-68
2022/06/04 01:07:21;;;;;;;23.05;9.20;;;10.90;99.90;;;;;;4975338;28;20063;-69
2022/06/04 01:10:06;;;;;;;19.00;9.10;;;10.90;99.90;;;;;;4969490;28;20170;-68
2022/06/04 01:12:38;;;;;;;22.63;8.73;;;10.80;99.90;;;;;;4965118;28;20498;-68
2022/06/04 01:15:39;;;;;;;18.95;8.10;;;10.80;99.90;;;;;;4969632;28;20050;-70
2022/06/04 01:18:12;;;;;;;25.98;10.13;;;10.80;99.90;;;;;;4988375;28;20038;-69
2022/06/04 01:20:43;;;;;;;19.30;8.82;;;10.80;99.90;;;;;;4968374;28;20059;-69
2022/06/04 01:23:09;;;;;;;21.35;8.60;;;10.80;99.90;;;;;;4968305;28;20477;-69
2022/06/04 01:26:00;;;;;;;15.02;8.73;;;10.80;99.90;;;;;;4967775;28;20484;-69
2022/06/04 01:28:29;;;;;;;14.93;8.93;;;10.70;99.90;;;;;;4976469;28;20042;-69
2022/06/04 01:31:02;;;;;;;15.60;8.68;;;10.70;99.90;;;;;;4972897;28;20051;-69
2022/06/04 01:33:37;;;;;;;21.63;8.55;;;10.60;99.90;;;;;;4969071;28;20051;-68
2022/06/04 01:36:10;;;;;;;13.48;7.97;;;10.70;99.90;;;;;;4969090;28;20042;-69
2022/06/04 01:38:41;;;;;;;14.52;7.88;;;10.60;99.90;;;;;;4967887;28;20039;-70
2022/06/04 01:41:26;;;;;;;16.25;9.07;;;10.60;99.90;;;;;;4968004;28;20082;-69
2022/06/04 01:44:00;;;;;;;23.13;8.55;;;10.50;99.90;;;;;;4971391;28;20050;-68
2022/06/04 01:46:33;;;;;;;17.58;8.57;;;10.60;99.90;;;;;;4964570;28;20047;-69
2022/06/04 01:49:19;;;;;;;25.55;8.90;;;10.50;99.90;;;;;;4968237;28;20058;-69
2022/06/04 01:51:46;;;;;;;19.48;8.68;;;10.50;99.90;;;;;;4965786;28;20055;-69
2022/06/04 01:54:19;;;;;;;16.58;8.93;;;10.40;99.90;;;;;;4974259;28;20844;-69
2022/06/04 01:56:51;;;;;;;16.75;8.57;;;10.50;99.90;;;;;;4972744;28;20055;-68
2022/06/04 01:59:31;;;;;;;16.13;8.85;;;10.50;99.90;;;;;;4963575;28;20078;-68
2022/06/04 02:02:01;;;;;;;19.15;8.63;;;10.40;99.90;;;;;;4966862;28;20065;-69
2022/06/04 02:04:34;;;;;;;19.23;8.90;;;10.40;99.90;;;;;;4976842;28;20050;-69
2022/06/04 02:07:32;;;;;;;18.25;8.40;;;10.30;99.90;;;;;;4970920;28;20449;-68
2022/06/04 02:10:24;;;;;;;18.70;9.10;;;10.30;99.90;;;;;;4970959;28;20063;-69
2022/06/04 02:12:55;;;;;;;18.48;9.25;;;10.30;99.90;;;;;;4965815;28;20194;-69
2022/06/04 02:15:26;;;;;;;19.95;9.77;;;10.30;99.90;;;;;;4971733;28;20460;-69
2022/06/04 02:17:57;;;;;;;15.45;9.40;;;10.30;99.90;;;;;;4971750;28;20057;-68
2022/06/04 02:20:24;;;;;;;14.10;7.97;;;10.30;99.90;;;;;;4972625;28;20047;-68
2022/06/04 02:22:51;;;;;;;20.42;9.07;;;10.40;99.90;;;;;;4973470;28;20046;-69
2022/06/04 02:25:17;;;;;;;22.48;9.45;;;10.40;99.90;;;;;;4969942;28;20461;-69
2022/06/04 02:27:43;;;;;;;17.80;9.65;;;10.40;99.90;;;;;;4972769;28;20054;-69
2022/06/04 02:30:11;;;;;;;16.98;8.45;;;10.40;99.90;;;;;;4970869;28;20050;-68
2022/06/04 02:33:00;;;;;;;21.55;8.82;;;10.40;99.90;;;;;;4972828;28;20501;-68
2022/06/04 02:35:40;;;;;;;17.35;8.77;;;10.40;99.90;;;;;;4970303;28;20058;-70
2022/06/04 02:38:11;;;;;;;16.33;8.05;;;10.40;99.90;;;;;;4967418;28;20035;-69
2022/06/04 02:40:56;;;;;;;17.92;7.65;;;10.30;99.90;;;;;;4980311;28;20050;-70
2022/06/04 02:43:31;;;;;;;16.58;8.50;;;10.50;99.90;;;;;;4953092;28;20385;-70
2022/06/04 02:46:21;;;;;;;16.63;8.35;;;10.50;99.90;;;;;;4970125;28;20070;-69
2022/06/04 02:48:58;;;;;;;20.70;8.50;;;10.50;99.90;;;;;;4964549;28;20501;-68
2022/06/04 02:51:29;;;;;;;18.77;8.57;;;10.50;99.90;;;;;;4967877;28;20055;-69
2022/06/04 02:53:55;;;;;;;15.75;8.80;;;10.60;99.90;;;;;;4979227;28;20070;-69
2022/06/04 02:56:26;;;;;;;16.20;8.50;;;10.60;99.90;;;;;;4973032;28;20050;-69
2022/06/04 02:58:58;;;;;;;17.67;8.35;;;10.50;99.90;;;;;;4967336;28;20050;-69
2022/06/04 03:01:25;;;;;;;17.00;8.95;;;10.50;99.90;;;;;;4967915;28;20053;-69
2022/06/04 03:03:51;;;;;;;18.05;8.30;;;10.50;99.90;;;;;;4969329;28;20058;-69
2022/06/04 03:06:26;;;;;;;14.88;7.75;;;10.60;99.90;;;;;;4986482;28;20045;-69
2022/06/04 03:08:53;;;;;;;20.05;8.52;;;10.60;99.90;;;;;;4971064;28;20066;-68
2022/06/04 03:11:20;;;;;;;20.40;8.10;;;10.60;99.90;;;;;;4977688;28;20051;-69
2022/06/04 03:13:47;;;;;;;16.33;7.85;;;10.70;99.90;;;;;;4969996;28;20105;-69
2022/06/04 03:16:14;;;;;;;17.45;7.93;;;10.70;99.90;;;;;;4974339;28;20065;-69
2022/06/04 03:18:40;;;;;;;18.42;7.70;;;10.70;99.90;;;;;;4973794;28;20047;-69
2022/06/04 03:21:06;;;;;;;13.75;7.55;;;10.70;99.90;;;;;;4986171;28;20054;-68
2022/06/04 03:23:32;;;;;;;13.85;7.00;;;10.70;99.90;;;;;;4965848;28;20046;-68
2022/06/04 03:25:58;;;;;;;18.38;6.97;;;10.70;99.90;;;;;;4971698;28;20046;-68
2022/06/04 03:28:24;;;;;;;13.18;7.07;;;10.80;99.90;;;;;;4968808;28;20113;-68
2022/06/04 03:30:49;;;;;;;9.68;6.07;;;10.80;99.90;;;;;;4974658;28;20500;-67
2022/06/04 03:33:15;;;;;;;11.60;6.55;;;10.80;99.90;;;;;;4966992;28;20045;-68
2022/06/04 03:35:43;;;;;;;16.45;7.32;;;10.80;99.90;;;;;;4966490;28;20039;-68
2022/06/04 03:38:09;;;;;;;12.87;6.90;;;10.90;99.90;;;;;;4976109;28;20401;-68
2022/06/04 03:40:35;;;;;;;9.75;6.10;;;10.80;99.90;;;;;;4974735;28;20074;-67
2022/06/04 03:43:01;;;;;;;13.48;6.50;;;10.80;99.90;;;;;;4972886;28;20082;-69
2022/06/04 03:45:26;;;;;;;10.43;5.50;;;10.80;99.90;;;;;;4971167;28;20054;-69
2022/06/04 03:47:56;;;;;;;9.63;6.07;;;10.90;99.90;;;;;;4969654;28;20046;-69
2022/06/04 03:50:25;;;;;;;9.55;5.20;;;10.80;99.90;;;;;;4967517;28;20043;-68
2022/06/04 03:52:51;;;;;;;19.45;5.82;;;10.70;99.90;;;;;;4964879;28;20187;-68
2022/06/04 03:55:18;;;;;;;12.60;5.28;;;10.70;99.90;;;;;;4971079;28;20057;-68
2022/06/04 03:57:50;;;;;;;10.65;5.15;;;10.70;99.90;;;;;;4978082;28;20061;-68
2022/06/04 04:00:18;;;;;;;11.48;5.30;;;10.70;99.90;;;;;;4983137;28;20046;-68
2022/06/04 04:02:48;;;;;;;7.95;5.28;;;10.70;99.90;;;;;;4970259;28;20086;-68
2022/06/04 04:05:18;;;;;;;13.77;5.60;;;10.70;99.90;;;;;;4969389;28;20038;-68
2022/06/04 04:07:44;;;;;;;12.30;5.75;;;10.70;99.90;;;;;;4970641;28;20055;-69
2022/06/04 04:10:11;;;;;;;9.95;5.50;;;10.70;99.90;;;;;;4969363;28;20059;-69
2022/06/04 04:12:38;;;;;;;11.70;5.80;;;10.70;99.90;;;;;;4970635;28;20062;-69
2022/06/04 04:15:05;;;;;;;8.43;4.88;;;10.70;99.90;;;;;;4969844;28;20054;-68
2022/06/04 04:17:31;;;;;;;10.18;5.85;;;10.80;99.90;;;;;;4971857;28;20054;-68
2022/06/04 04:19:57;;;;;;;11.10;5.40;;;10.80;99.90;;;;;;4965725;28;20047;-68
2022/06/04 04:22:23;;;;;;;9.13;5.57;;;10.70;99.90;;;;;;4954343;28;20101;-69
2022/06/04 04:24:48;;;;;;;10.48;6.18;;;10.70;99.90;;;;;;4968103;28;20076;-68
2022/06/04 04:27:14;;;;;;;8.63;5.40;;;10.80;99.90;;;;;;4969557;28;20057;-67
2022/06/04 04:29:40;;;;;;;7.57;5.65;;;10.80;99.90;;;;;;4969086;28;20054;-68
2022/06/04 04:32:07;;;;;;;10.13;5.47;;;10.80;99.90;;;;;;4975418;28;20053;-69
2022/06/04 04:34:33;;;;;;;8.82;5.47;;;10.80;99.90;;;;;;4966545;28;20058;-69
2022/06/04 04:36:58;;;;;;;10.93;5.40;;;10.80;99.90;;;;;;4979461;28;20035;-69
2022/06/04 04:39:24;;;;;;;10.20;5.20;;;10.90;99.90;;;;;;4973654;28;20057;-68
2022/06/04 04:41:50;;;;;;;9.32;4.90;;;11.00;99.90;;;;;;4969784;28;20379;-68
2022/06/04 04:44:15;;;;;;;10.32;5.50;;;11.00;99.90;;;;;;4967931;28;20073;-68
2022/06/04 04:46:41;;;;;;;13.23;5.82;;;11.00;99.90;;;;;;4968089;28;20437;-69
2022/06/04 04:49:08;;;;;;;11.68;5.57;;;11.10;99.90;;;;;;4983221;28;20091;-68
2022/06/04 04:51:34;;;;;;;8.32;5.00;;;11.20;99.90;;;;;;4953953;28;20046;-69
2022/06/04 04:54:01;;;;;;;7.97;4.85;;;11.20;99.90;;;;;;4969317;28;20089;-68
2022/06/04 04:56:26;;;;;;;8.90;5.45;;;11.20;99.90;;;;;;4985720;28;20129;-68
2022/06/04 04:58:52;;;;;;;10.25;5.22;;;11.30;99.90;;;;;;4967026;28;20426;-68
2022/06/04 05:01:24;;;;;;;9.65;6.03;;;11.40;99.90;;;;;;4968137;28;20122;-69
2022/06/04 05:03:51;;;;;;;8.13;5.38;;;11.40;99.90;;;;;;4978154;28;20043;-68
2022/06/04 05:06:19;;;;;;;10.65;5.95;;;11.40;99.90;;;;;;4968488;28;20043;-69
2022/06/04 05:08:45;;;;;;;11.43;5.50;;;11.50;99.90;;;;;;4968805;28;20382;-69
2022/06/04 05:11:17;;;;;;;8.60;5.47;;;11.50;99.90;;;;;;4975479;28;20616;-68
2022/06/04 05:13:43;;;;;;;9.88;5.63;;;11.60;99.90;;;;;;4960434;28;20046;-68
2022/06/04 05:16:09;;;;;;;17.77;5.40;;;11.70;99.90;;;;;;4968319;28;20114;-68
2022/06/04 05:18:35;;;;;;;8.68;5.35;;;11.80;99.90;;;;;;4968210;28;20042;-69
2022/06/04 05:21:21;;;;;;;16.40;6.35;;;11.80;99.90;;;;;;4968246;28;20047;-68
2022/06/04 05:23:48;;;;;;;9.80;4.93;;;11.90;99.90;;;;;;4982929;28;20046;-68
2022/06/04 05:26:14;;;;;;;10.57;5.47;;;12.10;99.90;;;;;;4968725;28;20047;-69
2022/06/04 05:28:40;;;;;;;9.85;5.28;;;12.10;99.90;;;;;;4969090;28;20547;-68
2022/06/04 05:31:05;;;;;;;13.23;5.65;;;12.20;99.90;;;;;;4975683;28;20042;-69
2022/06/04 05:33:31;;;;;;;9.93;5.55;;;12.20;99.90;;;;;;4977494;28;20190;-68
2022/06/04 05:35:57;;;;;;;9.30;5.72;;;12.20;99.90;;;;;;4973018;28;20082;-67
2022/06/04 05:38:23;;;;;;;7.90;5.40;;;12.30;99.90;;;;;;4967925;28;20050;-68
2022/06/04 05:40:48;;;;;;;9.00;4.22;;;12.40;99.90;;;;;;4980446;28;20411;-67
2022/06/04 05:43:14;;;;;;;10.80;5.75;;;12.40;99.90;;;;;;4992982;28;20061;-67
2022/06/04 05:45:40;;;;;;;8.40;4.78;;;12.50;99.90;;;;;;4970985;28;20055;-67
2022/06/04 05:48:06;;;;;;;10.43;5.40;;;12.70;99.90;;;;;;4967675;28;20043;-68
2022/06/04 05:50:31;;;;;;;8.95;5.50;;;12.80;99.90;;;;;;4986220;28;20140;-68
2022/06/04 05:52:57;;;;;;;7.82;5.10;;;12.80;99.90;;;;;;4964880;28;20050;-68
2022/06/04 05:55:23;;;;;;;7.70;4.65;;;12.90;99.90;;;;;;4971267;28;20054;-68
2022/06/04 05:57:49;;;;;;;8.77;4.88;;;13.00;99.90;;;;;;4972023;28;20543;-69
2022/06/04 06:00:15;;;;;;;8.80;4.70;;;13.10;99.90;;;;;;4970786;28;20481;-68
2022/06/04 06:02:41;;;;;;;13.43;4.82;;;13.10;99.90;;;;;;4974721;28;20049;-68
2022/06/04 06:05:07;;;;;;;10.02;4.60;;;13.20;99.90;;;;;;4974047;28;20118;-69
2022/06/04 06:07:32;;;;;;;8.13;5.00;;;13.10;99.90;;;;;;4973655;28;20051;-68
2022/06/04 06:09:58;;;;;;;11.10;4.90;;;13.30;99.90;;;;;;4979525;28;20653;-68
2022/06/04 06:12:24;;;;;;;8.57;4.88;;;13.60;99.90;;;;;;4983024;28;20058;-68
2022/06/04 06:14:50;;;;;;;6.90;4.57;;;13.80;99.90;;;;;;4981282;28;20042;-69
2022/06/04 06:17:15;;;;;;;7.63;4.85;;;13.90;99.90;;;;;;4958123;28;20050;-68
2022/06/04 06:19:41;;;;;;;5.43;4.68;;;13.90;99.90;;;;;;4972703;28;20042;-68
2022/06/04 06:22:07;;;;;;;9.85;5.00;;;13.80;99.90;;;;;;4971809;28;20050;-68
2022/06/04 06:24:33;;;;;;;8.20;4.55;;;13.60;99.90;;;;;;4971221;28;20042;-68
2022/06/04 06:26:59;;;;;;;7.13;4.45;;;13.70;99.90;;;;;;4978656;28;20049;-67
2022/06/04 06:29:29;;;;;;;8.57;4.70;;;13.80;99.90;;;;;;4975490;28;20061;-68
2022/06/04 06:31:56;;;;;;;6.80;4.70;;;13.90;99.90;;;;;;4987032;28;20161;-68
2022/06/04 06:34:23;;;;;;;9.53;5.87;;;14.00;99.90;;;;;;4978039;28;20568;-69
2022/06/04 06:36:49;;;;;;;10.20;4.72;;;14.00;99.90;;;;;;4982102;28;20289;-69
2022/06/04 06:39:15;;;;;;;7.45;4.25;;;14.20;99.90;;;;;;4970974;28;20046;-68
2022/06/04 06:41:41;;;;;;;7.10;4.57;;;14.30;99.90;;;;;;4972002;28;20556;-68
2022/06/04 06:44:07;;;;;;;7.43;4.80;;;14.40;99.90;;;;;;4969038;28;20562;-68
2022/06/04 06:46:36;;;;;;;10.57;4.30;;;14.50;99.90;;;;;;4975615;28;20090;-67
2022/06/04 06:49:08;;;;;;;8.77;4.20;;;14.60;99.90;;;;;;4971094;28;20042;-67
2022/06/04 06:51:38;;;;;;;5.18;3.83;;;14.60;99.90;;;;;;4972868;28;20602;-68
2022/06/04 06:54:05;;;;;;;7.28;4.57;;;14.70;99.90;;;;;;4966731;28;21101;-68
2022/06/04 06:56:33;;;;;;;6.65;3.80;;;14.80;99.90;;;;;;4969987;28;20047;-66
2022/06/04 06:59:00;;;;;;;6.25;4.22;;;14.90;99.90;;;;;;4970146;28;20473;-68
2022/06/04 07:01:27;;;;;;;8.88;4.60;;;14.90;99.90;;;;;;4969902;28;20412;-68
2022/06/04 07:03:55;;;;;;;7.18;4.15;;;14.90;99.90;;;;;;4970268;28;20144;-68
2022/06/04 07:06:34;;;;;;;8.43;3.92;;;14.90;99.90;;;;;;4979662;28;20049;-68
2022/06/04 07:09:02;;;;;;;7.35;4.18;;;14.90;99.90;;;;;;4976811;28;20071;-68
2022/06/04 07:11:28;;;;;;;9.43;4.47;;;15.00;99.90;;;;;;4970196;28;20070;-68
2022/06/04 07:13:54;;;;;;;9.38;4.57;;;15.20;99.90;;;;;;4968338;28;20043;-70
2022/06/04 07:16:20;;;;;;;6.97;4.82;;;15.20;99.90;;;;;;4972425;28;20390;-69
2022/06/04 07:18:46;;;;;;;6.55;4.28;;;15.30;99.90;;;;;;4972570;28;20042;-69
2022/06/04 07:21:12;;;;;;;8.10;4.57;;;15.30;99.90;;;;;;4968941;28;20049;-70
2022/06/04 07:23:39;;;;;;;6.95;4.38;;;15.40;99.90;;;;;;4984095;28;20097;-71
2022/06/04 07:26:05;;;;;;;7.97;4.30;;;15.20;99.90;;;;;;4971087;28;20125;-69
2022/06/04 07:28:32;;;;;;;6.88;3.92;;;15.30;99.90;;;;;;4969367;28;20058;-69
2022/06/04 07:30:58;;;;;;;7.28;3.45;;;15.10;99.90;;;;;;4970062;28;20054;-69
2022/06/04 07:33:27;;;;;;;5.57;3.72;;;15.30;99.90;;;;;;4969256;28;20050;-68
2022/06/04 07:35:53;;;;;;;9.00;4.22;;;15.20;99.90;;;;;;4969798;28;20066;-68
2022/06/04 07:38:19;;;;;;;6.30;3.63;;;15.40;99.90;;;;;;4970135;28;20422;-68
2022/06/04 07:40:45;;;;;;;6.03;3.63;;;15.50;99.90;;;;;;4970249;28;20046;-70
2022/06/04 07:43:13;;;;;;;7.80;3.72;;;15.50;99.90;;;;;;4967873;28;20053;-70
2022/06/04 07:45:39;;;;;;;8.00;4.35;;;15.60;99.90;;;;;;4972376;28;20043;-71
2022/06/04 07:48:06;;;;;;;5.88;3.72;;;15.70;99.90;;;;;;4962888;28;20057;-69
2022/06/04 07:50:33;;;;;;;7.00;3.85;;;15.50;99.90;;;;;;4961618;28;20054;-68
2022/06/04 07:52:59;;;;;;;7.28;3.38;;;15.60;99.90;;;;;;4958455;28;20452;-68
2022/06/04 07:55:26;;;;;;;6.45;3.70;;;15.50;99.90;;;;;;4969761;28;20055;-70
2022/06/04 07:57:52;;;;;;;11.55;4.53;;;15.50;99.90;;;;;;4973232;28;20509;-70
2022/06/04 08:00:19;;;;;;;8.63;3.38;;;15.60;99.90;;;;;;4979903;28;20575;-69
2022/06/04 08:02:46;;;;;;;5.57;3.45;;;15.70;99.90;;;;;;4977952;28;20125;-68
2022/06/04 08:05:13;;;;;;;6.35;3.85;;;15.70;99.90;;;;;;4971239;28;20042;-68
2022/06/04 08:07:40;;;;;;;7.05;3.58;;;15.60;99.90;;;;;;4969539;28;20122;-69
2022/06/04 08:10:08;;;;;;;5.28;3.65;;;15.70;99.90;;;;;;4972972;28;20062;-69
2022/06/04 08:12:35;;;;;;;7.70;3.72;;;15.80;99.90;;;;;;4970519;28;20113;-70
2022/06/04 08:15:04;;;;;;;7.15;3.70;;;16.00;99.90;;;;;;4975634;28;20077;-69
2022/06/04 08:17:33;;;;;;;7.55;3.92;;;16.20;99.90;;;;;;4973272;28;20049;-68
2022/06/04 08:19:59;;;;;;;6.38;3.35;;;16.10;99.90;;;;;;4981328;28;20104;-70
2022/06/04 08:22:24;;;;;;;15.73;4.30;;;16.30;99.90;;;;;;4969180;28;20055;-69
2022/06/04 08:24:50;;;;;;;6.47;3.78;;;16.50;99.90;;;;;;4969036;28;20130;-69
2022/06/04 08:27:17;;;;;;;6.07;3.92;;;16.50;99.90;;;;;;4969602;28;20047;-70
2022/06/04 08:29:44;;;;;;;9.05;3.95;;;16.60;99.90;;;;;;4973100;28;20141;-69
2022/06/04 08:32:12;;;;;;;7.33;3.23;;;16.50;99.90;;;;;;4979425;28;20427;-69
2022/06/04 08:34:37;;;;;;;5.63;3.45;;;16.40;99.90;;;;;;4959872;28;20310;-69
2022/06/04 08:37:05;;;;;;;5.90;3.30;;;16.40;99.90;;;;;;4974637;28;20073;-69
2022/06/04 08:39:31;;;;;;;;;;;16.50;99.90;;;;;;4969370;28;20042;-68
2022/06/04 08:42:18;;;;;;;7.85;3.83;;;16.40;99.90;;;;;;4970747;28;19929;-68
2022/06/04 08:44:48;;;;;;;11.27;3.90;;;16.40;99.90;;;;;;4970754;28;20042;-68
2022/06/04 08:47:20;;;;;;;7.57;3.58;;;16.50;99.90;;;;;;4970133;28;20082;-67
2022/06/04 08:50:09;;;;;;;5.53;3.20;;;16.60;99.90;;;;;;4969614;28;20046;-66
2022/06/04 08:52:43;;;;;;;5.60;3.05;;;16.80;99.90;;;;;;4968382;28;20058;-67
2022/06/04 08:58:24;;;;;;;7.53;3.47;;;17.00;99.90;;;;;;4960659;28;20046;-68
2022/06/04 09:01:08;;;;;;;9.25;3.58;;;17.10;99.90;;;;;;4980198;28;20034;-67
2022/06/04 09:03:52;;;;;;;6.47;3.28;;;17.20;99.90;;;;;;4972706;28;20050;-69
2022/06/04 09:06:48;;;;;;;6.38;3.50;;;17.40;99.90;;;;;;4976675;28;20178;-67
2022/06/04 09:09:35;;;;;;;5.43;3.10;;;17.40;99.90;;;;;;4983813;28;20055;-67
2022/06/04 09:12:29;;;;;;;6.30;3.22;;;17.40;99.90;;;;;;4975488;28;20077;-67
2022/06/04 09:15:22;;;;;;;5.55;3.10;;;17.50;99.90;;;;;;4972736;28;20042;-68
2022/06/04 09:17:56;;;;;;;6.45;3.20;;;17.70;99.90;;;;;;4974022;28;20050;-68
2022/06/04 09:20:42;;;;;;;7.00;2.88;;;17.60;99.90;;;;;;4974661;28;20527;-68
2022/06/04 09:23:35;;;;;;;4.40;2.80;;;17.60;99.90;;;;;;4974869;28;20402;-68
2022/06/04 09:26:13;;;;;;;5.82;3.10;;;17.50;99.90;;;;;;4971082;28;20453;-68
2022/06/04 09:29:01;;;;;;;6.25;2.83;;;17.40;99.90;;;;;;4973149;28;20517;-69
2022/06/04 09:31:29;;;;;;;7.78;3.17;;;17.50;99.90;;;;;;4972908;28;20141;-67
2022/06/04 09:34:02;;;;;;;6.28;2.83;;;17.50;99.90;;;;;;4974319;28;20058;-66
2022/06/04 09:36:31;;;;;;;6.57;3.50;;;17.30;99.90;;;;;;4973565;28;20085;-68
2022/06/04 09:38:59;;;;;;;5.93;2.92;;;17.30;99.90;;;;;;4975520;28;20043;-68
2022/06/04 09:41:32;;;;;;;5.22;2.80;;;17.00;99.90;;;;;;4969161;28;20050;-69
2022/06/04 09:44:05;;;;;;;9.23;3.80;;;16.90;99.90;;;;;;4971599;28;20398;-67
2022/06/04 09:46:32;;;;;;;8.48;3.45;;;16.70;99.90;;;;;;4971194;28;20069;-67
2022/06/04 09:48:59;;;;;;;5.63;3.47;;;16.60;99.90;;;;;;4970706;28;20090;-68
2022/06/04 09:51:28;;;;;;;4.97;3.00;;;16.50;99.90;;;;;;4971252;28;20055;-67
2022/06/04 09:54:02;;;;;;;5.30;2.92;;;16.50;99.90;;;;;;4972299;28;20053;-67
2022/06/04 09:56:32;;;;;;;7.05;3.13;;;16.70;99.90;;;;;;4967210;28;20050;-68
2022/06/04 09:59:32;;;;;;;9.48;3.25;;;16.90;99.90;;;;;;4967989;28;20518;-67
2022/06/04 10:02:10;;;;;;;5.60;2.80;;;17.30;99.90;;;;;;4970109;28;20490;-69
2022/06/04 10:04:40;;;;;;;6.75;2.83;;;17.50;99.90;;;;;;4970786;28;20047;-70
2022/06/04 10:07:10;;;;;;;6.80;3.03;;;17.60;99.90;;;;;;4970163;28;20497;-68
2022/06/04 10:09:56;;;;;;;7.45;3.10;;;17.70;99.90;;;;;;4971464;28;20145;-67
2022/06/04 10:15:41;;;;;;;7.03;3.15;;;17.60;99.90;;;;;;4969752;28;20065;-68
2022/06/04 10:18:25;;;;;;;5.15;2.90;;;17.60;99.90;;;;;;4971998;28;20047;-68
2022/06/04 10:20:52;;;;;;;3.78;2.97;;;17.70;99.90;;;;;;4971213;28;20073;-67
2022/06/04 10:23:18;;;;;;;7.25;3.47;;;17.80;99.90;;;;;;4971459;28;20062;-68
2022/06/04 10:26:09;;;;;;;7.10;3.45;;;17.80;99.90;;;;;;4969701;28;20050;-68
2022/06/04 10:29:06;;;;;;;7.63;3.30;;;18.00;99.90;;;;;;4953134;28;20403;-69
2022/06/04 10:31:39;;;;;;;5.78;3.30;;;18.20;99.90;;;;;;4977987;28;20070;-69
2022/06/04 10:34:45;;;;;;;6.82;3.60;;;18.30;99.90;;;;;;4971924;28;20097;-69
2022/06/04 10:37:29;;;;;;;8.13;2.97;;;18.40;99.90;;;;;;4970739;28;20540;-69
2022/06/04 10:40:20;;;;;;;7.03;3.58;;;18.50;99.90;;;;;;4986389;28;20046;-68
2022/06/04 10:42:55;;;;;;;6.22;3.05;;;18.50;99.90;;;;;;4971677;28;20050;-67
2022/06/04 10:45:45;;;;;;;6.25;3.60;;;18.70;99.90;;;;;;4970281;28;20401;-67
2022/06/04 10:48:24;;;;;;;6.93;3.20;;;18.80;99.90;;;;;;4972115;28;20116;-67
2022/06/04 10:53:41;;;;;;;8.75;3.40;;;18.80;99.90;;;;;;4969078;28;20051;-68
2022/06/04 10:56:18;;;;;;;8.52;3.13;;;18.80;99.60;;;;;;4967538;28;20074;-67
2022/06/04 10:59:02;;;;;;;6.05;2.90;;;18.90;99.40;;;;;;4963355;28;20057;-68
2022/06/04 11:01:31;;;;;;;4.93;3.33;;;18.90;99.90;;;;;;4965353;28;20533;-67
2022/06/04 11:04:22;;;;;;;6.47;3.28;;;19.10;99.90;;;;;;4972922;28;20047;-68
2022/06/04 11:07:10;;;;;;;7.93;3.15;;;19.50;99.40;;;;;;4985030;28;20102;-68
2022/06/04 11:09:40;;;;;;;13.50;3.47;;;19.60;98.10;;;;;;4970806;28;20072;-69
2022/06/04 11:12:30;;;;;;;6.97;3.55;;;19.60;99.00;;;;;;4970944;28;20039;-68
2022/06/04 11:15:03;;;;;;;6.03;3.38;;;19.60;98.30;;;;;;4987627;28;20051;-69
2022/06/04 11:17:35;;;;;;;8.05;3.20;;;19.70;98.60;;;;;;4971961;28;20101;-68
2022/06/04 11:20:05;;;;;;;7.60;3.40;;;19.90;98.20;;;;;;4973152;28;20153;-68
2022/06/04 11:22:48;;;;;;;6.65;3.55;;;19.90;98.10;;;;;;4973621;28;20081;-68
2022/06/04 11:25:27;;;;;;;9.70;3.55;;;19.80;97.80;;;;;;4970674;28;20137;-67
2022/06/04 11:27:59;;;;;;;9.10;3.50;;;19.90;98.50;;;;;;4972396;28;20050;-67
2022/06/04 11:30:35;;;;;;;6.60;3.40;;;19.90;97.90;;;;;;4971419;28;20055;-67
2022/06/04 11:33:13;;;;;;;10.43;3.60;;;19.60;98.00;;;;;;4973562;28;20136;-67
2022/06/04 11:36:06;;;;;;;6.22;3.40;;;19.40;98.10;;;;;;4969499;28;20433;-69
2022/06/04 11:38:56;;;;;;;8.48;3.88;;;19.40;99.20;;;;;;4972725;28;20055;-68
2022/06/04 11:41:33;;;;;;;9.00;3.80;;;19.70;99.60;;;;;;4972027;28;20105;-69
2022/06/04 11:44:24;;;;;;;6.47;3.90;;;19.90;97.60;;;;;;4971763;28;20082;-69
2022/06/04 11:46:57;;;;;;;9.57;4.28;;;19.70;97.60;;;;;;4968464;28;20134;-69
2022/06/04 11:50:17;;;;;;;10.10;3.58;;;19.50;98.50;;;;;;4972159;28;20043;-69
2022/06/04 11:53:12;;;;;;;8.13;3.72;;;19.70;98.00;;;;;;4971845;28;20086;-68
2022/06/04 11:55:48;;;;;;;7.68;3.72;;;19.80;99.10;;;;;;4955301;28;20065;-68
2022/06/04 11:58:38;;;;;;;7.72;3.65;;;19.70;97.50;;;;;;4970828;28;20513;-68
2022/06/04 12:01:13;;;;;;;7.50;3.35;;;19.70;97.70;;;;;;4971244;28;20058;-68
2022/06/04 12:03:54;;;;;;;5.30;3.47;;;19.70;98.40;;;;;;4966752;28;20047;-68
2022/06/04 12:06:40;;;;;;;8.55;4.07;;;19.70;98.00;;;;;;4972819;28;20047;-67
2022/06/04 12:09:15;;;;;;;11.70;3.60;;;19.60;97.50;;;;;;4972194;28;20051;-68
2022/06/04 12:11:55;;;;;;;7.40;3.10;;;19.70;98.70;;;;;;4972167;28;20053;-67
2022/06/04 12:14:38;;;;;;;5.32;3.72;;;20.00;97.70;;;;;;4972833;28;20047;-68
2022/06/04 12:17:12;;;;;;;8.25;3.42;;;19.90;98.30;;;;;;4973430;28;20117;-68
2022/06/04 12:25:42;;;;;;;7.85;3.63;;;20.10;98.20;;;;;;4969603;28;20039;-68
2022/06/04 12:28:27;;;;;;;7.50;3.67;;;20.10;97.20;;;;;;4964591;28;20512;-68
2022/06/04 12:30:54;;;;;;;6.00;3.53;;;20.00;97.30;;;;;;4969586;28;20078;-68
2022/06/04 12:33:31;;;;;;;7.70;3.78;;;19.90;97.40;;;;;;4969803;28;20086;-68
2022/06/04 12:36:02;;;;;;;8.00;3.60;;;19.80;97.80;;;;;;4969580;28;20108;-67
2022/06/04 12:38:28;;;;;;;7.05;3.83;;;19.80;97.40;;;;;;4968523;28;20117;-68
2022/06/04 12:41:15;;;;;;;8.25;3.90;;;19.80;97.10;;;;;;4968010;28;20105;-69
2022/06/04 12:43:47;;;;;;;10.10;3.97;;;19.70;97.60;;;;;;4969849;28;20062;-67
2022/06/04 12:46:22;;;;;;;8.23;3.90;;;19.70;97.80;;;;;;4968440;28;20050;-68
2022/06/04 12:49:06;;;;;;;11.55;4.07;;;19.70;97.30;;;;;;4970483;28;20382;-68
2022/06/04 12:51:35;;;;;;;8.23;4.32;;;19.40;98.60;;;;;;4969017;28;20051;-68
2022/06/04 12:54:31;;;;;;;9.50;3.88;;;19.40;98.20;;;;;;4962665;28;20058;-69
2022/06/04 12:57:04;;;;;;;9.27;3.85;;;19.70;98.00;;;;;;4956289;28;20047;-68
2022/06/04 12:59:36;;;;;;;9.38;4.07;;;19.60;98.30;;;;;;4970140;28;20130;-69
2022/06/04 13:02:02;;;;;;;10.65;3.70;;;19.70;99.20;;;;;;4969972;28;20444;-69
2022/06/04 13:04:38;;;;;;;9.40;4.13;;;20.00;97.60;;;;;;4969793;28;20042;-69
2022/06/04 13:07:25;;;;;;;11.80;3.75;;;19.90;97.70;;;;;;4968516;28;20043;-69
2022/06/04 13:10:05;;;;;;;11.00;4.05;;;19.90;97.80;;;;;;4963754;28;20524;-69
2022/06/04 13:12:33;;;;;;;10.45;3.85;;;19.80;98.30;;;;;;4949662;28;20531;-67
2022/06/04 13:15:17;;;;;;;12.70;4.35;;;19.80;98.50;;;;;;4957654;28;20137;-67
2022/06/04 13:17:47;;;;;;;8.20;3.70;;;20.00;98.30;;;;;;4969828;28;20122;-67
2022/06/04 13:20:30;;;;;;;8.50;3.63;;;20.00;97.60;;;;;;4968858;28;20066;-68
2022/06/04 13:23:01;;;;;;;7.57;3.42;;;20.00;97.70;;;;;;4968942;28;20489;-68
2022/06/04 13:25:34;;;;;;;9.02;4.00;;;20.20;97.90;;;;;;4968776;28;20564;-68
2022/06/04 13:28:00;;;;;;;7.38;3.72;;;20.20;97.60;;;;;;4969123;28;20051;-69
2022/06/04 13:30:32;;;;;;;10.10;4.00;;;20.10;97.70;;;;;;4970019;28;20583;-69